createdAt,value
2022-10-22T00:00:35.547Z,8.70
2022-10-22T00:03:06.735Z,8.80
2022-10-22T00:05:40.544Z,8.90
2022-10-22T00:08:11.674Z,8.80
2022-10-22T00:10:42.522Z,8.80
2022-10-22T00:13:13.990Z,8.70
2022-10-22T00:15:45.064Z,8.70
2022-10-22T00:18:16.624Z,8.70
2022-10-22T00:20:49.705Z,8.70
2022-10-22T00:23:20.854Z,8.80
2022-10-22T00:25:51.358Z,8.80
2022-10-22T00:28:22.974Z,8.80
2022-10-22T00:31:00.472Z,8.80
2022-10-22T00:33:32.201Z,8.80
2022-10-22T00:36:05.521Z,8.90
2022-10-22T00:38:37.814Z,9.00
2022-10-22T00:41:09.162Z,9.00
2022-10-22T00:43:58.858Z,9.00
2022-10-22T00:46:29.818Z,9.00
2022-10-22T00:49:02.753Z,8.90
2022-10-22T00:51:38.363Z,8.70
2022-10-22T00:54:11.298Z,8.60
2022-10-22T00:56:42.203Z,8.60
2022-10-22T00:59:14.839Z,8.70
2022-10-22T01:01:46.267Z,8.70
2022-10-22T01:04:17.756Z,8.70
2022-10-22T01:06:50.730Z,8.80
2022-10-22T01:09:28.721Z,8.70
2022-10-22T01:12:05.156Z,8.60
2022-10-22T01:14:45.890Z,8.60
2022-10-22T01:17:25.635Z,8.60
2022-10-22T01:20:09.592Z,8.50
2022-10-22T01:22:46.348Z,8.70
2022-10-22T01:25:26.287Z,8.50
2022-10-22T01:28:08.915Z,8.50
2022-10-22T01:30:44.774Z,8.60
2022-10-22T01:33:18.564Z,8.70
2022-10-22T01:35:50.340Z,8.80
2022-10-22T01:38:25.544Z,8.90
2022-10-22T01:40:59.613Z,8.90
2022-10-22T01:43:30.716Z,8.90
2022-10-22T01:46:09.554Z,9.00
2022-10-22T01:48:53.931Z,8.90
2022-10-22T01:51:56.123Z,8.90
2022-10-22T01:54:35.123Z,8.90
2022-10-22T01:57:15.766Z,8.90
2022-10-22T01:59:55.870Z,8.90
2022-10-22T02:02:39.180Z,8.90
2022-10-22T02:05:16.034Z,9.00
2022-10-22T02:07:51.240Z,8.90
2022-10-22T02:10:23.136Z,9.00
2022-10-22T02:12:56.801Z,9.00
2022-10-22T02:15:29.946Z,9.10
2022-10-22T02:18:04.044Z,9.00
2022-10-22T02:20:38.473Z,9.00
2022-10-22T02:23:09.944Z,9.00
2022-10-22T02:25:44.938Z,9.00
2022-10-22T02:28:19.663Z,9.00
2022-10-22T02:30:57.925Z,9.00
2022-10-22T02:33:34.826Z,9.00
2022-10-22T02:36:07.931Z,9.10
2022-10-22T02:38:41.264Z,9.20
2022-10-22T02:41:13.042Z,9.10
2022-10-22T02:43:52.334Z,9.00
2022-10-22T02:46:23.688Z,9.00
2022-10-22T02:48:56.496Z,9.00
2022-10-22T02:51:27.533Z,9.00
2022-10-22T02:53:58.798Z,8.90
2022-10-22T02:56:30.698Z,9.00
2022-10-22T02:59:02.008Z,8.90
2022-10-22T03:01:33.338Z,8.90
2022-10-22T03:04:06.590Z,8.90
2022-10-22T03:06:37.699Z,8.80
2022-10-22T03:09:09.262Z,8.70
2022-10-22T03:11:40.747Z,8.70
2022-10-22T03:14:11.456Z,8.60
2022-10-22T03:16:42.484Z,8.60
2022-10-22T03:19:17.422Z,8.60
2022-10-22T03:21:52.105Z,8.50
2022-10-22T03:24:27.764Z,8.50
2022-10-22T03:26:59.690Z,8.40
2022-10-22T03:29:31.009Z,8.40
2022-10-22T03:32:02.882Z,8.40
2022-10-22T03:34:36.157Z,8.40
2022-10-22T03:37:07.036Z,8.40
2022-10-22T03:39:39.038Z,8.40
2022-10-22T03:42:10.805Z,8.30
2022-10-22T03:44:44.012Z,8.40
2022-10-22T03:47:17.147Z,8.40
2022-10-22T03:49:51.919Z,8.40
2022-10-22T03:52:23.089Z,8.30
2022-10-22T03:54:55.266Z,8.40
2022-10-22T03:57:26.700Z,8.40
2022-10-22T03:59:57.725Z,8.40
2022-10-22T04:02:28.802Z,8.40
2022-10-22T04:05:02.414Z,8.40
2022-10-22T04:07:34.077Z,8.40
2022-10-22T04:10:05.447Z,8.40
2022-10-22T04:12:36.644Z,8.40
2022-10-22T04:15:08.561Z,8.40
2022-10-22T04:17:40.226Z,8.40
2022-10-22T04:20:14.872Z,8.40
2022-10-22T04:22:46.858Z,8.40
2022-10-22T04:25:18.144Z,8.40
2022-10-22T04:27:49.648Z,8.40
2022-10-22T04:30:21.097Z,8.40
2022-10-22T04:32:52.184Z,8.40
2022-10-22T04:38:01.985Z,8.40
2022-10-22T04:40:33.188Z,8.40
2022-10-22T04:43:04.079Z,8.50
2022-10-22T04:45:37.163Z,8.50
2022-10-22T04:48:08.293Z,8.40
2022-10-22T04:50:42.161Z,8.40
2022-10-22T04:53:13.625Z,8.50
2022-10-22T04:55:45.650Z,8.50
2022-10-22T04:58:17.085Z,8.50
2022-10-22T05:00:48.739Z,8.50
2022-10-22T05:03:20.000Z,8.50
2022-10-22T05:05:52.903Z,8.50
2022-10-22T05:08:23.948Z,8.50
2022-10-22T05:10:54.932Z,8.50
2022-10-22T05:13:26.305Z,8.60
2022-10-22T05:15:57.300Z,8.50
2022-10-22T05:18:28.328Z,8.60
2022-10-22T05:21:01.596Z,8.50
2022-10-22T05:23:33.056Z,8.50
2022-10-22T05:26:07.897Z,8.60
2022-10-22T05:28:39.569Z,8.50
2022-10-22T05:31:11.517Z,8.50
2022-10-22T05:33:42.973Z,8.50
2022-10-22T05:36:18.418Z,8.50
2022-10-22T05:38:49.731Z,8.60
2022-10-22T05:41:24.305Z,8.60
2022-10-22T05:43:57.912Z,8.60
2022-10-22T05:46:30.981Z,8.70
2022-10-22T05:49:06.136Z,8.70
2022-10-22T05:51:40.507Z,8.70
2022-10-22T05:54:13.953Z,8.70
2022-10-22T05:56:45.051Z,8.70
2022-10-22T05:59:16.678Z,8.80
2022-10-22T06:01:47.866Z,8.70
2022-10-22T06:04:20.422Z,8.70
2022-10-22T06:06:55.793Z,8.70
2022-10-22T06:09:31.347Z,8.70
2022-10-22T06:12:03.009Z,8.80
2022-10-22T06:14:34.749Z,8.80
2022-10-22T06:17:06.072Z,8.70
2022-10-22T06:19:37.373Z,8.70
2022-10-22T06:22:10.124Z,8.70
2022-10-22T06:24:44.315Z,8.70
2022-10-22T06:27:16.372Z,8.80
2022-10-22T06:29:50.078Z,8.80
2022-10-22T06:32:22.008Z,8.80
2022-10-22T06:34:54.021Z,8.80
2022-10-22T06:37:26.909Z,8.90
2022-10-22T06:39:58.264Z,8.80
2022-10-22T06:42:30.390Z,8.80
2022-10-22T06:47:34.337Z,8.70
2022-10-22T06:50:05.457Z,8.70
2022-10-22T06:52:38.648Z,8.60
2022-10-22T06:55:10.231Z,8.70
2022-10-22T06:57:42.290Z,8.70
2022-10-22T07:00:15.469Z,8.70
2022-10-22T07:02:47.289Z,8.70
2022-10-22T07:05:19.513Z,8.70
2022-10-22T07:07:52.502Z,8.70
2022-10-22T07:10:25.990Z,8.70
2022-10-22T07:12:59.761Z,8.70
2022-10-22T07:15:30.894Z,8.60
2022-10-22T07:18:02.682Z,8.60
2022-10-22T07:20:34.524Z,8.60
2022-10-22T07:23:08.008Z,8.60
2022-10-22T07:25:38.877Z,8.60
2022-10-22T07:28:09.821Z,8.50
2022-10-22T07:30:41.844Z,8.40
2022-10-22T07:33:13.726Z,8.40
2022-10-22T07:35:45.535Z,8.40
2022-10-22T07:38:19.231Z,8.40
2022-10-22T07:40:51.262Z,8.50
2022-10-22T07:43:22.393Z,8.50
2022-10-22T07:45:53.934Z,8.50
2022-10-22T07:48:25.542Z,8.50
2022-10-22T07:50:56.621Z,8.40
2022-10-22T07:53:29.877Z,8.50
2022-10-22T07:56:01.080Z,8.50
2022-10-22T07:58:32.500Z,8.50
2022-10-22T08:01:06.684Z,8.50
2022-10-22T08:03:38.072Z,8.50
2022-10-22T08:06:09.498Z,8.50
2022-10-22T08:08:42.526Z,8.60
2022-10-22T08:11:14.364Z,8.60
2022-10-22T08:13:45.909Z,8.60
2022-10-22T08:16:17.831Z,8.60
2022-10-22T08:18:49.095Z,8.50
2022-10-22T08:21:20.542Z,8.50
2022-10-22T08:23:54.805Z,8.40
2022-10-22T08:26:26.359Z,8.30
2022-10-22T08:28:57.815Z,8.20
2022-10-22T08:31:29.486Z,8.20
2022-10-22T08:34:00.939Z,8.20
2022-10-22T08:36:32.168Z,8.20
2022-10-22T08:39:05.678Z,8.20
2022-10-22T08:41:46.164Z,8.20
2022-10-22T08:44:41.343Z,8.30
2022-10-22T08:47:31.462Z,8.30
2022-10-22T08:50:04.341Z,8.30
2022-10-22T08:52:37.652Z,8.30
2022-10-22T08:55:19.586Z,8.30
2022-10-22T08:57:59.128Z,8.20
2022-10-22T09:00:39.316Z,8.20
2022-10-22T09:03:29.216Z,8.20
2022-10-22T09:06:06.807Z,8.20
2022-10-22T09:08:40.126Z,8.20
2022-10-22T09:11:23.276Z,8.20
2022-10-22T09:13:57.090Z,8.20
2022-10-22T09:16:39.897Z,8.20
2022-10-22T09:19:24.403Z,8.10
2022-10-22T09:22:04.451Z,8.20
2022-10-22T09:24:40.911Z,8.10
2022-10-22T09:27:19.791Z,8.10
2022-10-22T09:29:53.139Z,8.10
2022-10-22T09:32:25.097Z,8.10
2022-10-22T09:35:00.419Z,8.00
2022-10-22T09:37:33.767Z,8.00
2022-10-22T09:40:10.399Z,8.00
2022-10-22T09:42:44.501Z,8.00
2022-10-22T09:45:22.516Z,8.00
2022-10-22T09:48:02.152Z,7.90
2022-10-22T09:50:44.432Z,8.00
2022-10-22T09:53:21.101Z,8.00
2022-10-22T09:55:57.241Z,8.00
2022-10-22T09:58:31.317Z,8.00
2022-10-22T10:01:05.034Z,8.00
2022-10-22T10:03:37.246Z,8.10
2022-10-22T10:06:08.934Z,8.20
2022-10-22T10:08:40.770Z,8.20
2022-10-22T10:11:19.954Z,8.10
2022-10-22T10:14:02.008Z,8.10
2022-10-22T10:16:46.406Z,8.10
2022-10-22T10:19:36.202Z,8.10
2022-10-22T10:22:20.643Z,8.10
2022-10-22T10:25:13.858Z,8.20
2022-10-22T10:27:51.607Z,8.20
2022-10-22T10:30:27.499Z,8.20
2022-10-22T10:33:23.655Z,8.20
2022-10-22T10:36:00.735Z,8.30
2022-10-22T10:38:51.797Z,8.30
2022-10-22T10:41:30.629Z,8.30
2022-10-22T10:44:15.150Z,8.30
2022-10-22T10:46:58.068Z,8.30
2022-10-22T10:49:32.815Z,8.30
2022-10-22T10:52:17.510Z,8.30
2022-10-22T10:55:01.722Z,8.30
2022-10-22T10:57:44.035Z,8.30
2022-10-22T11:00:18.830Z,8.30
2022-10-22T11:03:44.138Z,8.20
2022-10-22T11:06:19.447Z,8.20
2022-10-22T11:09:00.580Z,8.20
2022-10-22T11:11:39.711Z,8.10
2022-10-22T11:14:24.223Z,8.10
2022-10-22T11:17:03.397Z,8.10
2022-10-22T11:19:59.977Z,8.10
2022-10-22T11:22:37.612Z,8.10
2022-10-22T11:25:21.417Z,8.10
2022-10-22T11:28:00.953Z,8.20
2022-10-22T11:30:39.254Z,8.20
2022-10-22T11:33:14.715Z,8.20
2022-10-22T11:35:50.919Z,8.30
2022-10-22T11:38:29.066Z,8.30
2022-10-22T11:41:05.171Z,8.30
2022-10-22T11:43:38.285Z,8.30
2022-10-22T11:46:29.436Z,8.40
2022-10-22T11:49:19.619Z,8.30
2022-10-22T11:51:53.716Z,8.40
2022-10-22T11:54:43.865Z,8.40
2022-10-22T11:57:25.257Z,8.50
2022-10-22T11:59:59.675Z,8.50
2022-10-22T12:03:04.768Z,8.40
2022-10-22T12:05:40.330Z,8.50
2022-10-22T12:08:28.068Z,8.50
2022-10-22T12:11:09.938Z,8.40
2022-10-22T12:14:05.514Z,8.40
2022-10-22T12:16:58.393Z,8.40
2022-10-22T12:19:36.611Z,8.50
2022-10-22T12:22:21.281Z,8.50
2022-10-22T12:25:00.588Z,8.60
2022-10-22T12:27:37.363Z,8.50
2022-10-22T12:30:22.279Z,8.40
2022-10-22T12:32:56.341Z,8.40
2022-10-22T12:35:30.157Z,8.40
2022-10-22T12:38:04.304Z,8.40
2022-10-22T12:40:39.136Z,8.40
2022-10-22T12:43:15.042Z,8.40
2022-10-22T12:45:49.894Z,8.40
2022-10-22T12:48:25.354Z,8.40
2022-10-22T12:50:58.436Z,8.40
2022-10-22T12:53:32.914Z,8.50
2022-10-22T12:56:08.495Z,8.60
2022-10-22T12:58:43.995Z,8.60
2022-10-22T13:01:16.850Z,8.50
2022-10-22T13:03:50.832Z,8.40
2022-10-22T13:06:29.489Z,8.40
2022-10-22T13:09:10.335Z,8.40
2022-10-22T13:11:46.682Z,8.50
2022-10-22T13:14:29.377Z,8.40
2022-10-22T13:17:13.172Z,8.40
2022-10-22T13:19:47.560Z,8.30
2022-10-22T13:22:39.363Z,8.40
2022-10-22T13:25:26.585Z,8.40
2022-10-22T13:28:00.997Z,8.40
2022-10-22T13:30:34.220Z,8.30
2022-10-22T13:33:07.302Z,8.30
2022-10-22T13:35:41.366Z,8.40
2022-10-22T13:38:18.679Z,8.40
2022-10-22T13:40:50.042Z,8.50
2022-10-22T13:43:24.081Z,8.50
2022-10-22T13:45:58.104Z,8.40
2022-10-22T13:48:31.065Z,8.40
2022-10-22T13:51:02.139Z,8.40
2022-10-22T13:53:34.548Z,8.40
2022-10-22T13:56:06.218Z,8.40
2022-10-22T13:58:39.953Z,8.30
2022-10-22T14:01:20.196Z,8.20
2022-10-22T14:03:53.212Z,8.20
2022-10-22T14:06:25.570Z,8.20
2022-10-22T14:09:01.631Z,8.20
2022-10-22T14:11:34.220Z,8.20
2022-10-22T14:14:09.771Z,8.10
2022-10-22T14:16:41.935Z,8.00
2022-10-22T14:19:22.008Z,8.00
2022-10-22T14:21:53.209Z,8.00
2022-10-22T14:24:24.935Z,8.00
2022-10-22T14:26:55.992Z,7.90
2022-10-22T14:29:29.005Z,8.00
2022-10-22T14:32:00.492Z,7.90
2022-10-22T14:34:31.598Z,7.90
2022-10-22T14:37:02.979Z,7.90
2022-10-22T14:39:33.984Z,7.90
2022-10-22T14:42:05.647Z,7.90
2022-10-22T14:44:39.139Z,7.90
2022-10-22T14:47:10.092Z,7.90
2022-10-22T14:49:42.531Z,7.90
2022-10-22T14:52:18.529Z,7.90
2022-10-22T14:54:51.154Z,7.90
2022-10-22T14:57:22.885Z,7.90
2022-10-22T14:59:57.684Z,7.90
2022-10-22T15:02:29.003Z,8.00
2022-10-22T15:05:00.510Z,8.00
2022-10-22T15:07:32.153Z,8.00
2022-10-22T15:10:03.555Z,8.00
2022-10-22T15:12:35.697Z,8.00
2022-10-22T15:15:10.218Z,8.00
2022-10-22T15:17:42.478Z,8.00
2022-10-22T15:20:14.306Z,8.00
2022-10-22T15:22:46.408Z,8.00
2022-10-22T15:25:19.043Z,8.00
2022-10-22T15:27:51.819Z,8.00
2022-10-22T15:30:27.486Z,8.00
2022-10-22T15:32:58.925Z,8.10
2022-10-22T15:35:32.164Z,8.20
2022-10-22T15:38:03.619Z,8.20
2022-10-22T15:40:35.389Z,8.20
2022-10-22T15:43:09.028Z,8.30
2022-10-22T15:45:42.922Z,8.30
2022-10-22T15:48:15.541Z,8.30
2022-10-22T15:50:47.580Z,8.30
2022-10-22T15:53:19.682Z,8.30
2022-10-22T15:55:53.196Z,8.30
2022-10-22T15:58:24.566Z,8.40
2022-10-22T16:00:59.212Z,8.40
2022-10-22T16:06:09.663Z,8.50
2022-10-22T16:08:41.588Z,8.50
2022-10-22T16:11:13.439Z,8.60
2022-10-22T16:13:45.295Z,8.60
2022-10-22T16:16:18.417Z,8.70
2022-10-22T16:18:49.484Z,8.70
2022-10-22T16:21:21.083Z,8.70
2022-10-22T16:23:54.121Z,8.80
2022-10-22T16:26:25.567Z,8.80
2022-10-22T16:28:57.611Z,8.90
2022-10-22T16:31:31.335Z,9.00
2022-10-22T16:34:02.937Z,9.10
2022-10-22T16:36:34.674Z,9.20
2022-10-22T16:39:06.324Z,9.20
2022-10-22T16:41:40.093Z,9.20
2022-10-22T16:44:14.773Z,9.30
2022-10-22T16:46:47.892Z,9.30
2022-10-22T16:49:19.464Z,9.30
2022-10-22T16:51:50.535Z,9.30
2022-10-22T16:54:23.213Z,9.40
2022-10-22T16:56:54.813Z,9.50
2022-10-22T16:59:26.694Z,9.60
2022-10-22T17:01:59.925Z,9.70
2022-10-22T17:04:30.985Z,9.80
2022-10-22T17:07:02.377Z,9.80
2022-10-22T17:09:33.418Z,9.80
2022-10-22T17:12:04.632Z,9.70
2022-10-22T17:14:36.493Z,9.60
2022-10-22T17:17:09.900Z,9.60
2022-10-22T17:19:40.996Z,9.40
2022-10-22T17:22:14.903Z,9.60
2022-10-22T17:24:48.896Z,9.60
2022-10-22T17:27:20.095Z,9.60
2022-10-22T17:29:51.520Z,9.60
2022-10-22T17:32:26.133Z,9.50
2022-10-22T17:34:57.452Z,9.60
2022-10-22T17:37:29.128Z,9.60
2022-10-22T17:40:01.225Z,9.60
2022-10-22T17:42:33.001Z,9.80
2022-10-22T17:45:03.980Z,10.00
2022-10-22T17:47:37.722Z,10.20
2022-10-22T17:50:09.653Z,10.10
2022-10-22T17:52:41.516Z,10.00
2022-10-22T17:55:15.795Z,10.10
2022-10-22T17:57:46.892Z,10.00
2022-10-22T18:02:57.824Z,10.20
2022-10-22T18:05:29.781Z,10.40
2022-10-22T18:08:04.387Z,10.50
2022-10-22T18:10:43.780Z,10.40
2022-10-22T18:13:16.385Z,10.40
2022-10-22T18:15:47.305Z,10.40
2022-10-22T18:18:20.305Z,10.20
2022-10-22T18:20:54.615Z,10.10
2022-10-22T18:23:26.152Z,10.10
2022-10-22T18:25:57.206Z,9.80
2022-10-22T18:28:28.259Z,9.90
2022-10-22T18:30:59.015Z,10.10
2022-10-22T18:33:32.643Z,10.20
2022-10-22T18:36:08.293Z,10.30
2022-10-22T18:38:40.136Z,10.30
2022-10-22T18:41:12.781Z,10.10
2022-10-22T18:43:43.822Z,10.10
2022-10-22T18:46:14.830Z,10.20
2022-10-22T18:48:48.524Z,10.30
2022-10-22T18:51:19.749Z,10.40
2022-10-22T18:54:05.389Z,10.60
2022-10-22T18:56:47.100Z,10.70
2022-10-22T18:59:20.176Z,10.90
2022-10-22T19:01:52.612Z,11.00
2022-10-22T19:04:29.272Z,11.00
2022-10-22T19:07:01.084Z,11.10
2022-10-22T19:09:32.509Z,10.90
2022-10-22T19:12:03.647Z,10.90
2022-10-22T19:14:34.989Z,10.90
2022-10-22T19:17:06.854Z,10.90
2022-10-22T19:19:40.592Z,10.90
2022-10-22T19:22:11.618Z,11.00
2022-10-22T19:24:42.918Z,11.00
2022-10-22T19:27:13.936Z,11.00
2022-10-22T19:29:46.464Z,10.90
2022-10-22T19:32:17.637Z,11.00
2022-10-22T19:34:50.993Z,11.10
2022-10-22T19:37:22.026Z,11.20
2022-10-22T19:39:53.285Z,11.30
2022-10-22T19:42:24.300Z,11.30
2022-10-22T19:44:56.202Z,11.40
2022-10-22T19:47:27.709Z,11.30
2022-10-22T19:50:00.749Z,11.20
2022-10-22T19:52:31.905Z,11.30
2022-10-22T19:55:02.999Z,11.30
2022-10-22T19:57:33.541Z,11.40
2022-10-22T20:00:05.073Z,11.40
2022-10-22T20:02:35.983Z,11.50
2022-10-22T20:05:09.692Z,11.40
2022-10-22T20:07:40.960Z,11.60
2022-10-22T20:10:13.161Z,11.60
2022-10-22T20:12:44.638Z,11.40
2022-10-22T20:15:17.913Z,11.20
2022-10-22T20:17:48.945Z,11.10
2022-10-22T20:20:26.215Z,11.00
2022-10-22T20:22:57.678Z,11.00
2022-10-22T20:25:28.740Z,10.80
2022-10-22T20:27:59.837Z,10.80
2022-10-22T20:30:31.211Z,10.80
2022-10-22T20:33:02.354Z,10.60
2022-10-22T20:35:35.763Z,10.50
2022-10-22T20:38:06.874Z,10.40
2022-10-22T20:40:38.217Z,10.30
2022-10-22T20:43:11.700Z,10.20
2022-10-22T20:45:43.334Z,10.30
2022-10-22T20:48:15.447Z,10.20
2022-10-22T20:50:48.473Z,10.10
2022-10-22T20:53:19.455Z,10.20
2022-10-22T20:55:50.784Z,10.10
2022-10-22T20:58:24.521Z,10.20
2022-10-22T21:00:59.202Z,10.10
2022-10-22T21:03:30.377Z,10.00
2022-10-22T21:06:04.432Z,10.10
2022-10-22T21:08:35.661Z,10.00
2022-10-22T21:11:06.907Z,9.90
2022-10-22T21:13:38.285Z,9.80
2022-10-22T21:16:13.753Z,9.70
2022-10-22T21:18:44.846Z,9.60
2022-10-22T21:21:20.559Z,9.40
2022-10-22T21:23:52.803Z,9.40
2022-10-22T21:26:24.816Z,9.50
2022-10-22T21:28:55.989Z,9.50
2022-10-22T21:31:27.570Z,9.50
2022-10-22T21:33:58.816Z,9.50
2022-10-22T21:36:32.894Z,9.60
2022-10-22T21:39:05.544Z,9.60
2022-10-22T21:41:36.984Z,9.60
2022-10-22T21:44:08.204Z,9.30
2022-10-22T21:46:39.274Z,8.50
2022-10-22T21:49:10.305Z,7.60
2022-10-22T21:51:43.275Z,7.10
2022-10-22T21:54:15.133Z,6.70
2022-10-22T21:56:46.118Z,6.60
2022-10-22T21:59:17.145Z,6.60
2022-10-22T22:01:48.262Z,6.80
2022-10-22T22:04:19.308Z,7.00
2022-10-22T22:06:52.857Z,7.10
2022-10-22T22:09:24.008Z,7.40
2022-10-22T22:11:55.020Z,7.80
2022-10-22T22:14:26.033Z,7.90
2022-10-22T22:16:56.739Z,8.00
2022-10-22T22:19:27.752Z,8.20
2022-10-22T22:22:00.795Z,8.20
2022-10-22T22:24:31.969Z,8.40
2022-10-22T22:27:04.704Z,8.50
2022-10-22T22:29:36.095Z,8.90
2022-10-22T22:32:07.172Z,9.40
2022-10-22T22:34:38.437Z,9.80
2022-10-22T22:37:13.789Z,10.10
2022-10-22T22:39:45.069Z,10.10
2022-10-22T22:42:16.119Z,10.00
2022-10-22T22:44:47.243Z,9.90
2022-10-22T22:47:20.502Z,9.90
2022-10-22T22:49:51.548Z,9.80
2022-10-22T22:52:25.257Z,9.60
2022-10-22T22:54:56.390Z,9.60
2022-10-22T22:57:27.255Z,9.50
2022-10-22T22:59:58.356Z,9.40
2022-10-22T23:02:28.903Z,9.30
2022-10-22T23:04:59.667Z,9.20
2022-10-22T23:07:32.036Z,9.10
2022-10-22T23:10:03.088Z,9.10
2022-10-22T23:12:34.343Z,9.10
2022-10-22T23:15:05.356Z,9.10
2022-10-22T23:20:08.433Z,8.90
2022-10-22T23:22:42.152Z,8.80
2022-10-22T23:25:14.324Z,8.80
2022-10-22T23:27:45.545Z,8.70
2022-10-22T23:30:17.161Z,8.70
2022-10-22T23:32:50.472Z,8.60
2022-10-22T23:35:22.181Z,8.70
2022-10-22T23:37:55.601Z,8.70
2022-10-22T23:40:26.567Z,8.70
2022-10-22T23:42:57.270Z,8.60
2022-10-22T23:45:28.303Z,8.60
2022-10-22T23:47:59.394Z,8.60
2022-10-22T23:50:30.947Z,8.60
2022-10-22T23:53:04.282Z,8.50
2022-10-22T23:55:35.652Z,8.50
2022-10-22T23:58:06.705Z,8.50
